sensor_id;sensor_type;location;lat;lon;timestamp;pressure;altitude;pressure_sealevel;temperature;humidity
71735;BME280;59577;52.122;5.406;2023-05-12T00:01:40;101799.63;;;12.36;98.86
71735;BME280;59577;52.122;5.406;2023-05-12T00:04:07;101794.09;;;12.33;98.46
71735;BME280;59577;52.122;5.406;2023-05-12T00:06:34;101795.69;;;12.34;98.96
71735;BME280;59577;52.122;5.406;2023-05-12T00:09:00;101798.75;;;12.32;99.16
71735;BME280;59577;52.122;5.406;2023-05-12T00:11:26;101792.28;;;12.25;99.13
71735;BME280;59577;52.122;5.406;2023-05-12T00:13:54;101790.72;;;12.23;99.49
71735;BME280;59577;52.122;5.406;2023-05-12T00:16:20;101792.06;;;12.17;99.81
71735;BME280;59577;52.122;5.406;2023-05-12T00:18:47;101787.78;;;12.16;99.97
71735;BME280;59577;52.122;5.406;2023-05-12T00:21:13;101793.88;;;12.13;100.00
71735;BME280;59577;52.122;5.406;2023-05-12T00:23:40;101784.94;;;12.13;100.00
71735;BME280;59577;52.122;5.406;2023-05-12T00:26:07;101790.72;;;12.11;100.00
71735;BME280;59577;52.122;5.406;2023-05-12T00:28:33;101781.31;;;12.09;100.00
71735;BME280;59577;52.122;5.406;2023-05-12T00:31:02;101787.53;;;12.09;100.00
71735;BME280;59577;52.122;5.406;2023-05-12T00:33:29;101777.47;;;12.10;100.00
71735;BME280;59577;52.122;5.406;2023-05-12T00:35:56;101777.81;;;12.08;100.00
71735;BME280;59577;52.122;5.406;2023-05-12T00:38:25;101773.50;;;12.07;100.00
71735;BME280;59577;52.122;5.406;2023-05-12T00:40:52;101775.00;;;12.04;100.00
71735;BME280;59577;52.122;5.406;2023-05-12T00:43:18;101776.00;;;12.00;100.00
71735;BME280;59577;52.122;5.406;2023-05-12T00:45:45;101773.50;;;11.95;100.00
71735;BME280;59577;52.122;5.406;2023-05-12T00:48:12;101774.28;;;11.95;100.00
71735;BME280;59577;52.122;5.406;2023-05-12T00:50:39;101779.81;;;11.99;100.00
71735;BME280;59577;52.122;5.406;2023-05-12T00:53:06;101772.63;;;12.03;100.00
71735;BME280;59577;52.122;5.406;2023-05-12T00:55:35;101771.81;;;12.02;100.00
71735;BME280;59577;52.122;5.406;2023-05-12T00:58:02;101779.59;;;12.04;100.00
71735;BME280;59577;52.122;5.406;2023-05-12T01:00:29;101768.31;;;12.02;100.00
71735;BME280;59577;52.122;5.406;2023-05-12T01:02:55;101766.16;;;12.08;100.00
71735;BME280;59577;52.122;5.406;2023-05-12T01:05:29;101773.50;;;12.07;100.00
71735;BME280;59577;52.122;5.406;2023-05-12T01:07:59;101766.84;;;12.04;100.00
71735;BME280;59577;52.122;5.406;2023-05-12T01:10:26;101756.00;;;12.04;100.00
71735;BME280;59577;52.122;5.406;2023-05-12T01:12:52;101751.69;;;12.03;100.00
71735;BME280;59577;52.122;5.406;2023-05-12T01:15:19;101747.75;;;12.01;100.00
71735;BME280;59577;52.122;5.406;2023-05-12T01:17:51;101748.75;;;11.96;100.00
71735;BME280;59577;52.122;5.406;2023-05-12T01:20:21;101745.94;;;11.93;100.00
71735;BME280;59577;52.122;5.406;2023-05-12T01:22:51;101748.97;;;11.91;100.00
71735;BME280;59577;52.122;5.406;2023-05-12T01:25:22;101745.78;;;11.89;100.00
71735;BME280;59577;52.122;5.406;2023-05-12T01:27:51;101746.91;;;11.88;100.00
71735;BME280;59577;52.122;5.406;2023-05-12T01:30:18;101743.41;;;11.88;100.00
71735;BME280;59577;52.122;5.406;2023-05-12T01:32:46;101744.84;;;11.85;100.00
71735;BME280;59577;52.122;5.406;2023-05-12T01:35:12;101747.44;;;11.81;100.00
71735;BME280;59577;52.122;5.406;2023-05-12T01:37:39;101740.00;;;11.78;100.00
71735;BME280;59577;52.122;5.406;2023-05-12T01:40:06;101737.31;;;11.78;100.00
71735;BME280;59577;52.122;5.406;2023-05-12T01:42:33;101742.25;;;11.76;100.00
71735;BME280;59577;52.122;5.406;2023-05-12T01:44:59;101737.16;;;11.75;100.00
71735;BME280;59577;52.122;5.406;2023-05-12T01:47:26;101736.38;;;11.74;100.00
71735;BME280;59577;52.122;5.406;2023-05-12T01:49:52;101741.47;;;11.76;100.00
71735;BME280;59577;52.122;5.406;2023-05-12T01:52:19;101746.88;;;11.76;100.00
71735;BME280;59577;52.122;5.406;2023-05-12T01:54:46;101743.50;;;11.79;100.00
71735;BME280;59577;52.122;5.406;2023-05-12T01:57:12;101749.38;;;11.81;100.00
71735;BME280;59577;52.122;5.406;2023-05-12T01:59:39;101749.03;;;11.82;100.00
71735;BME280;59577;52.122;5.406;2023-05-12T02:02:05;101748.72;;;11.84;100.00
71735;BME280;59577;52.122;5.406;2023-05-12T02:04:32;101743.97;;;11.81;100.00
71735;BME280;59577;52.122;5.406;2023-05-12T02:07:00;101744.63;;;11.78;100.00
71735;BME280;59577;52.122;5.406;2023-05-12T02:09:27;101748.81;;;11.75;100.00
71735;BME280;59577;52.122;5.406;2023-05-12T02:11:53;101747.22;;;11.74;100.00
71735;BME280;59577;52.122;5.406;2023-05-12T02:14:20;101742.47;;;11.71;100.00
71735;BME280;59577;52.122;5.406;2023-05-12T02:16:49;101742.13;;;11.73;100.00
71735;BME280;59577;52.122;5.406;2023-05-12T02:19:18;101745.06;;;11.67;100.00
71735;BME280;59577;52.122;5.406;2023-05-12T02:21:46;101743.50;;;11.66;100.00
71735;BME280;59577;52.122;5.406;2023-05-12T02:24:15;101742.22;;;11.64;100.00
71735;BME280;59577;52.122;5.406;2023-05-12T02:26:42;101738.72;;;11.63;100.00
71735;BME280;59577;52.122;5.406;2023-05-12T02:29:09;101734.44;;;11.62;100.00
71735;BME280;59577;52.122;5.406;2023-05-12T02:31:38;101744.03;;;11.60;100.00
71735;BME280;59577;52.122;5.406;2023-05-12T02:34:05;101734.84;;;11.52;100.00
71735;BME280;59577;52.122;5.406;2023-05-12T02:36:32;101734.06;;;11.52;100.00
71735;BME280;59577;52.122;5.406;2023-05-12T02:38:58;101734.84;;;11.52;100.00
71735;BME280;59577;52.122;5.406;2023-05-12T02:41:25;101729.78;;;11.51;100.00
71735;BME280;59577;52.122;5.406;2023-05-12T02:43:52;101729.31;;;11.48;100.00
71735;BME280;59577;52.122;5.406;2023-05-12T02:46:18;101730.13;;;11.49;100.00
71735;BME280;59577;52.122;5.406;2023-05-12T02:48:45;101735.66;;;11.53;100.00
71735;BME280;59577;52.122;5.406;2023-05-12T02:51:12;101731.16;;;11.57;100.00
71735;BME280;59577;52.122;5.406;2023-05-12T02:53:38;101730.47;;;11.60;100.00
71735;BME280;59577;52.122;5.406;2023-05-12T02:56:05;101727.88;;;11.63;100.00
71735;BME280;59577;52.122;5.406;2023-05-12T02:58:32;101720.97;;;11.66;100.00
71735;BME280;59577;52.122;5.406;2023-05-12T03:00:59;101720.97;;;11.66;100.00
71735;BME280;59577;52.122;5.406;2023-05-12T03:03:36;101725.63;;;11.65;100.00
71735;BME280;59577;52.122;5.406;2023-05-12T03:06:04;101729.00;;;11.62;100.00
71735;BME280;59577;52.122;5.406;2023-05-12T03:08:31;101726.50;;;11.57;100.00
71735;BME280;59577;52.122;5.406;2023-05-12T03:10:58;101724.94;;;11.56;100.00
71735;BME280;59577;52.122;5.406;2023-05-12T03:13:24;101718.72;;;11.56;100.00
71735;BME280;59577;52.122;5.406;2023-05-12T03:15:51;101720.84;;;11.50;100.00
71735;BME280;59577;52.122;5.406;2023-05-12T03:18:18;101728.19;;;11.50;100.00
71735;BME280;59577;52.122;5.406;2023-05-12T03:20:44;101720.06;;;11.50;100.00
71735;BME280;59577;52.122;5.406;2023-05-12T03:23:10;101709.88;;;11.46;100.00
71735;BME280;59577;52.122;5.406;2023-05-12T03:25:37;101720.41;;;11.48;100.00
71735;BME280;59577;52.122;5.406;2023-05-12T03:28:04;101723.44;;;11.46;100.00
71735;BME280;59577;52.122;5.406;2023-05-12T03:30:31;101717.56;;;11.44;100.00
71735;BME280;59577;52.122;5.406;2023-05-12T03:32:58;101718.03;;;11.46;100.00
71735;BME280;59577;52.122;5.406;2023-05-12T03:35:25;101714.84;;;11.44;100.00
71735;BME280;59577;52.122;5.406;2023-05-12T03:37:52;101715.97;;;11.43;100.00
71735;BME280;59577;52.122;5.406;2023-05-12T03:40:18;101712.81;;;11.41;100.00
71735;BME280;59577;52.122;5.406;2023-05-12T03:42:45;101702.31;;;11.40;100.00
71735;BME280;59577;52.122;5.406;2023-05-12T03:45:12;101705.81;;;11.40;100.00
71735;BME280;59577;52.122;5.406;2023-05-12T03:47:39;101708.53;;;11.40;100.00
71735;BME280;59577;52.122;5.406;2023-05-12T03:50:06;101709.31;;;11.41;100.00
71735;BME280;59577;52.122;5.406;2023-05-12T03:52:33;101709.00;;;11.42;100.00
71735;BME280;59577;52.122;5.406;2023-05-12T03:55:00;101712.59;;;11.46;100.00
71735;BME280;59577;52.122;5.406;2023-05-12T03:57:26;101711.59;;;11.51;100.00
71735;BME280;59577;52.122;5.406;2023-05-12T03:59:52;101709.56;;;11.48;100.00
71735;BME280;59577;52.122;5.406;2023-05-12T04:02:19;101704.00;;;11.44;100.00
71735;BME280;59577;52.122;5.406;2023-05-12T04:04:45;101704.00;;;11.44;100.00
71735;BME280;59577;52.122;5.406;2023-05-12T04:07:12;101700.53;;;11.44;100.00
71735;BME280;59577;52.122;5.406;2023-05-12T04:09:38;101699.72;;;11.43;100.00
71735;BME280;59577;52.122;5.406;2023-05-12T04:12:05;101702.09;;;11.45;100.00
71735;BME280;59577;52.122;5.406;2023-05-12T04:14:31;101707.84;;;11.43;100.00
71735;BME280;59577;52.122;5.406;2023-05-12T04:17:08;101704.47;;;11.46;100.00
71735;BME280;59577;52.122;5.406;2023-05-12T04:19:35;101706.84;;;11.48;100.00
71735;BME280;59577;52.122;5.406;2023-05-12T04:22:01;101714.19;;;11.47;100.00
71735;BME280;59577;52.122;5.406;2023-05-12T04:24:27;101714.19;;;11.47;100.00
71735;BME280;59577;52.122;5.406;2023-05-12T04:26:56;101719.28;;;11.49;100.00
71735;BME280;59577;52.122;5.406;2023-05-12T04:29:22;101711.47;;;11.47;100.00
71735;BME280;59577;52.122;5.406;2023-05-12T04:31:49;101716.47;;;11.45;100.00
71735;BME280;59577;52.122;5.406;2023-05-12T04:34:18;101720.41;;;11.48;100.00
71735;BME280;59577;52.122;5.406;2023-05-12T04:36:44;101723.09;;;11.48;100.00
71735;BME280;59577;52.122;5.406;2023-05-12T04:39:11;101725.50;;;11.50;100.00
71735;BME280;59577;52.122;5.406;2023-05-12T04:41:38;101718.03;;;11.46;100.00
71735;BME280;59577;52.122;5.406;2023-05-12T04:44:05;101724.22;;;11.47;100.00
71735;BME280;59577;52.122;5.406;2023-05-12T04:46:31;101716.09;;;11.47;100.00
71735;BME280;59577;52.122;5.406;2023-05-12T04:48:58;101728.66;;;11.52;100.00
71735;BME280;59577;52.122;5.406;2023-05-12T04:51:24;101727.53;;;11.53;100.00
71735;BME280;59577;52.122;5.406;2023-05-12T04:53:51;101726.72;;;11.52;100.00
71735;BME280;59577;52.122;5.406;2023-05-12T04:56:17;101732.25;;;11.56;100.00
71735;BME280;59577;52.122;5.406;2023-05-12T04:58:44;101735.91;;;11.60;100.00
71735;BME280;59577;52.122;5.406;2023-05-12T05:01:10;101739.41;;;11.60;100.00
71735;BME280;59577;52.122;5.406;2023-05-12T05:03:39;101746.53;;;11.65;100.00
71735;BME280;59577;52.122;5.406;2023-05-12T05:06:06;101745.88;;;11.68;100.00
71735;BME280;59577;52.122;5.406;2023-05-12T05:08:33;101746.44;;;11.74;100.00
71735;BME280;59577;52.122;5.406;2023-05-12T05:10:59;101754.03;;;11.80;100.00
71735;BME280;59577;52.122;5.406;2023-05-12T05:13:25;101765.66;;;11.81;100.00
71735;BME280;59577;52.122;5.406;2023-05-12T05:15:54;101765.22;;;11.79;100.00
71735;BME280;59577;52.122;5.406;2023-05-12T05:18:20;101769.47;;;11.80;100.00
71735;BME280;59577;52.122;5.406;2023-05-12T05:20:49;101770.28;;;11.80;100.00
71735;BME280;59577;52.122;5.406;2023-05-12T05:23:24;101772.69;;;11.82;100.00
71735;BME280;59577;52.122;5.406;2023-05-12T05:25:51;101776.16;;;11.82;100.00
71735;BME280;59577;52.122;5.406;2023-05-12T05:28:18;101770.88;;;11.86;100.00
71735;BME280;59577;52.122;5.406;2023-05-12T05:30:44;101772.91;;;11.89;100.00
71735;BME280;59577;52.122;5.406;2023-05-12T05:33:10;101776.88;;;11.92;100.00
71735;BME280;59577;52.122;5.406;2023-05-12T05:35:38;101768.41;;;11.93;100.00
71735;BME280;59577;52.122;5.406;2023-05-12T05:38:05;101777.00;;;11.95;100.00
71735;BME280;59577;52.122;5.406;2023-05-12T05:40:31;101769.34;;;11.97;100.00
71735;BME280;59577;52.122;5.406;2023-05-12T05:43:14;101767.84;;;12.00;100.00
71735;BME280;59577;52.122;5.406;2023-05-12T05:45:44;101771.81;;;12.02;100.00
71735;BME280;59577;52.122;5.406;2023-05-12T05:48:10;101776.13;;;12.03;100.00
71735;BME280;59577;52.122;5.406;2023-05-12T05:50:37;101771.13;;;12.06;100.00
71735;BME280;59577;52.122;5.406;2023-05-12T05:53:04;101785.63;;;12.10;100.00
71735;BME280;59577;52.122;5.406;2023-05-12T05:55:31;101781.75;;;12.11;100.00
71735;BME280;59577;52.122;5.406;2023-05-12T05:57:57;101786.84;;;12.12;100.00
71735;BME280;59577;52.122;5.406;2023-05-12T06:00:24;101788.91;;;12.15;100.00
71735;BME280;59577;52.122;5.406;2023-05-12T06:02:51;101791.38;;;12.20;100.00
71735;BME280;59577;52.122;5.406;2023-05-12T06:05:17;101801.56;;;12.23;100.00
71735;BME280;59577;52.122;5.406;2023-05-12T06:07:45;101790.84;;;12.27;100.00
71735;BME280;59577;52.122;5.406;2023-05-12T06:10:12;101797.16;;;12.31;100.00
71735;BME280;59577;52.122;5.406;2023-05-12T06:12:48;101803.13;;;12.37;100.00
71735;BME280;59577;52.122;5.406;2023-05-12T06:15:16;101803.63;;;12.39;100.00
71735;BME280;59577;52.122;5.406;2023-05-12T06:17:43;101806.09;;;12.44;100.00
71735;BME280;59577;52.122;5.406;2023-05-12T06:20:09;101809.03;;;12.51;100.00
71735;BME280;59577;52.122;5.406;2023-05-12T06:22:38;101804.94;;;12.57;100.00
71735;BME280;59577;52.122;5.406;2023-05-12T06:25:05;101810.97;;;12.63;100.00
71735;BME280;59577;52.122;5.406;2023-05-12T06:27:31;101815.34;;;12.68;100.00
71735;BME280;59577;52.122;5.406;2023-05-12T06:29:58;101811.59;;;12.72;100.00
71735;BME280;59577;52.122;5.406;2023-05-12T06:32:25;101819.63;;;12.81;100.00
71735;BME280;59577;52.122;5.406;2023-05-12T06:34:52;101821.78;;;12.88;100.00
71735;BME280;59577;52.122;5.406;2023-05-12T06:37:18;101819.59;;;12.93;100.00
71735;BME280;59577;52.122;5.406;2023-05-12T06:39:44;101816.88;;;12.93;100.00
71735;BME280;59577;52.122;5.406;2023-05-12T06:42:11;101817.31;;;12.95;100.00
71735;BME280;59577;52.122;5.406;2023-05-12T06:44:38;101827.75;;;12.93;100.00
71735;BME280;59577;52.122;5.406;2023-05-12T06:47:07;101828.09;;;12.92;100.00
71735;BME280;59577;52.122;5.406;2023-05-12T06:49:34;101840.22;;;12.94;100.00
71735;BME280;59577;52.122;5.406;2023-05-12T06:52:03;101834.88;;;12.98;100.00
71735;BME280;59577;52.122;5.406;2023-05-12T06:54:30;101835.66;;;12.98;100.00
71735;BME280;59577;52.122;5.406;2023-05-12T06:56:56;101844.28;;;13.01;100.00
71735;BME280;59577;52.122;5.406;2023-05-12T06:59:23;101840.88;;;13.04;100.00
71735;BME280;59577;52.122;5.406;2023-05-12T07:01:49;101844.94;;;13.10;100.00
71735;BME280;59577;52.122;5.406;2023-05-12T07:04:16;101850.47;;;13.13;100.00
71735;BME280;59577;52.122;5.406;2023-05-12T07:06:42;101851.22;;;13.26;100.00
71735;BME280;59577;52.122;5.406;2023-05-12T07:09:09;101852.56;;;13.45;100.00
71735;BME280;59577;52.122;5.406;2023-05-12T07:11:36;101845.13;;;13.58;100.00
71735;BME280;59577;52.122;5.406;2023-05-12T07:14:02;101854.72;;;13.67;100.00
71735;BME280;59577;52.122;5.406;2023-05-12T07:16:28;101854.41;;;13.85;100.00
71735;BME280;59577;52.122;5.406;2023-05-12T07:18:55;101851.34;;;14.02;100.00
71735;BME280;59577;52.122;5.406;2023-05-12T07:21:22;101854.50;;;14.20;100.00
71735;BME280;59577;52.122;5.406;2023-05-12T07:23:48;101858.31;;;14.32;100.00
71735;BME280;59577;52.122;5.406;2023-05-12T07:26:15;101852.91;;;14.67;100.00
71735;BME280;59577;52.122;5.406;2023-05-12T07:28:42;101849.31;;;14.98;100.00
71735;BME280;59577;52.122;5.406;2023-05-12T07:31:08;101862.84;;;15.30;100.00
71735;BME280;59577;52.122;5.406;2023-05-12T07:33:35;101852.88;;;15.57;99.47
71735;BME280;59577;52.122;5.406;2023-05-12T07:36:02;101859.88;;;15.97;97.85
71735;BME280;59577;52.122;5.406;2023-05-12T07:38:30;101862.41;;;16.10;96.02
71735;BME280;59577;52.122;5.406;2023-05-12T07:40:58;101866.66;;;16.30;94.44
71735;BME280;59577;52.122;5.406;2023-05-12T07:43:24;101857.88;;;16.71;93.38
71735;BME280;59577;52.122;5.406;2023-05-12T07:45:51;101867.34;;;17.34;90.22
71735;BME280;59577;52.122;5.406;2023-05-12T07:48:17;101860.19;;;17.56;86.76
71735;BME280;59577;52.122;5.406;2023-05-12T07:50:43;101866.88;;;17.96;85.08
71735;BME280;59577;52.122;5.406;2023-05-12T07:53:10;101870.66;;;18.26;83.10
71735;BME280;59577;52.122;5.406;2023-05-12T07:55:36;101869.94;;;18.36;82.76
71735;BME280;59577;52.122;5.406;2023-05-12T07:58:03;101875.00;;;18.34;79.64
71735;BME280;59577;52.122;5.406;2023-05-12T08:00:29;101877.50;;;18.05;79.30
71735;BME280;59577;52.122;5.406;2023-05-12T08:02:56;101877.25;;;17.83;79.56
71735;BME280;59577;52.122;5.406;2023-05-12T08:05:22;101881.81;;;17.69;80.95
71735;BME280;59577;52.122;5.406;2023-05-12T08:07:49;101870.94;;;17.76;80.45
71735;BME280;59577;52.122;5.406;2023-05-12T08:10:15;101872.72;;;17.95;80.07
71735;BME280;59577;52.122;5.406;2023-05-12T08:12:42;101886.31;;;18.29;79.37
71735;BME280;59577;52.122;5.406;2023-05-12T08:15:09;101876.28;;;18.47;78.44
71735;BME280;59577;52.122;5.406;2023-05-12T08:17:35;101882.75;;;18.76;78.60
71735;BME280;59577;52.122;5.406;2023-05-12T08:20:03;101874.75;;;19.16;76.23
71735;BME280;59577;52.122;5.406;2023-05-12T08:22:30;101877.09;;;19.14;74.75
71735;BME280;59577;52.122;5.406;2023-05-12T08:24:56;101880.28;;;19.30;74.03
71735;BME280;59577;52.122;5.406;2023-05-12T08:27:23;101879.53;;;19.37;73.84
71735;BME280;59577;52.122;5.406;2023-05-12T08:29:49;101885.91;;;19.59;73.20
71735;BME280;59577;52.122;5.406;2023-05-12T08:32:16;101885.13;;;19.69;72.05
71735;BME280;59577;52.122;5.406;2023-05-12T08:34:42;101885.19;;;19.95;70.56
71735;BME280;59577;52.122;5.406;2023-05-12T08:37:10;101883.22;;;19.91;70.10
71735;BME280;59577;52.122;5.406;2023-05-12T08:39:37;101886.00;;;19.95;69.81
71735;BME280;59577;52.122;5.406;2023-05-12T08:42:17;101891.84;;;19.79;69.21
71735;BME280;59577;52.122;5.406;2023-05-12T08:44:46;101901.63;;;19.73;69.32
71735;BME280;59577;52.122;5.406;2023-05-12T08:47:14;101897.28;;;19.68;67.72
71735;BME280;59577;52.122;5.406;2023-05-12T08:49:44;101896.94;;;19.81;70.70
71735;BME280;59577;52.122;5.406;2023-05-12T08:52:11;101898.19;;;20.41;68.09
71735;BME280;59577;52.122;5.406;2023-05-12T08:54:39;101893.47;;;20.63;67.51
71735;BME280;59577;52.122;5.406;2023-05-12T08:57:20;101887.97;;;20.63;65.63
71735;BME280;59577;52.122;5.406;2023-05-12T08:59:48;101901.31;;;20.54;65.32
71735;BME280;59577;52.122;5.406;2023-05-12T09:02:16;101900.53;;;20.57;64.39
71735;BME280;59577;52.122;5.406;2023-05-12T09:04:42;101908.78;;;20.60;63.77
71735;BME280;59577;52.122;5.406;2023-05-12T09:07:09;101911.94;;;20.48;63.85
71735;BME280;59577;52.122;5.406;2023-05-12T09:09:37;101912.25;;;20.97;64.54
71735;BME280;59577;52.122;5.406;2023-05-12T09:12:11;101904.94;;;21.64;62.33
71735;BME280;59577;52.122;5.406;2023-05-12T09:14:41;101906.34;;;21.90;61.39
71735;BME280;59577;52.122;5.406;2023-05-12T09:17:09;101904.22;;;21.56;60.26
71735;BME280;59577;52.122;5.406;2023-05-12T09:19:37;101906.69;;;21.26;61.56
71735;BME280;59577;52.122;5.406;2023-05-12T09:22:04;101918.16;;;21.06;61.27
71735;BME280;59577;52.122;5.406;2023-05-12T09:24:35;101914.69;;;20.73;62.03
71735;BME280;59577;52.122;5.406;2023-05-12T09:27:03;101912.75;;;20.63;63.53
71735;BME280;59577;52.122;5.406;2023-05-12T09:29:30;101923.31;;;20.46;62.52
71735;BME280;59577;52.122;5.406;2023-05-12T09:32:07;101914.28;;;20.17;63.60
71735;BME280;59577;52.122;5.406;2023-05-12T09:34:35;101920.56;;;20.18;63.50
71735;BME280;59577;52.122;5.406;2023-05-12T09:37:05;101924.06;;;19.93;62.22
71735;BME280;59577;52.122;5.406;2023-05-12T09:39:32;101931.44;;;19.71;62.65
71735;BME280;59577;52.122;5.406;2023-05-12T09:42:00;101938.44;;;19.54;62.32
71735;BME280;59577;52.122;5.406;2023-05-12T09:44:27;101934.09;;;19.46;63.24
71735;BME280;59577;52.122;5.406;2023-05-12T09:47:05;101932.44;;;19.27;63.66
71735;BME280;59577;52.122;5.406;2023-05-12T09:49:32;101941.03;;;19.18;63.81
71735;BME280;59577;52.122;5.406;2023-05-12T09:51:58;101938.69;;;19.24;64.43
71735;BME280;59577;52.122;5.406;2023-05-12T09:54:26;101945.47;;;19.44;64.04
71735;BME280;59577;52.122;5.406;2023-05-12T09:56:57;101946.03;;;19.86;62.46
71735;BME280;59577;52.122;5.406;2023-05-12T09:59:31;101944.56;;;20.71;61.65
71735;BME280;59577;52.122;5.406;2023-05-12T10:01:59;101942.41;;;21.44;59.91
71735;BME280;59577;52.122;5.406;2023-05-12T10:04:29;101944.69;;;21.67;57.98
71735;BME280;59577;52.122;5.406;2023-05-12T10:06:57;101929.81;;;21.53;56.62
71735;BME280;59577;52.122;5.406;2023-05-12T10:11:53;101940.34;;;21.69;56.47
71735;BME280;59577;52.122;5.406;2023-05-12T10:14:22;101937.94;;;21.78;56.73
71735;BME280;59577;52.122;5.406;2023-05-12T10:16:49;101943.38;;;21.93;55.61
71735;BME280;59577;52.122;5.406;2023-05-12T10:19:16;101932.31;;;21.96;56.65
71735;BME280;59577;52.122;5.406;2023-05-12T10:21:44;101941.31;;;22.04;56.16
71735;BME280;59577;52.122;5.406;2023-05-12T10:24:13;101936.28;;;21.92;54.85
71735;BME280;59577;52.122;5.406;2023-05-12T10:26:41;101942.69;;;21.74;56.10
71735;BME280;59577;52.122;5.406;2023-05-12T10:29:08;101938.44;;;21.59;56.00
71735;BME280;59577;52.122;5.406;2023-05-12T10:31:36;101936.06;;;21.61;55.43
71735;BME280;59577;52.122;5.406;2023-05-12T10:34:03;101932.78;;;21.84;54.93
71735;BME280;59577;52.122;5.406;2023-05-12T10:36:30;101936.25;;;21.95;55.11
71735;BME280;59577;52.122;5.406;2023-05-12T10:39:04;101935.97;;;22.39;54.70
71735;BME280;59577;52.122;5.406;2023-05-12T10:41:33;101941.09;;;22.40;55.48
71735;BME280;59577;52.122;5.406;2023-05-12T10:43:59;101931.94;;;22.50;55.28
71735;BME280;59577;52.122;5.406;2023-05-12T10:46:26;101929.47;;;22.60;53.51
71735;BME280;59577;52.122;5.406;2023-05-12T10:51:44;101928.69;;;22.59;53.33
71735;BME280;59577;52.122;5.406;2023-05-12T10:54:18;101927.22;;;22.89;52.07
71735;BME280;59577;52.122;5.406;2023-05-12T10:56:45;101934.06;;;22.77;52.35
71735;BME280;59577;52.122;5.406;2023-05-12T10:59:17;101941.03;;;22.47;53.29
71735;BME280;59577;52.122;5.406;2023-05-12T11:04:38;101936.19;;;22.10;52.61
71735;BME280;59577;52.122;5.406;2023-05-12T11:07:11;101938.84;;;22.21;53.63
71735;BME280;59577;52.122;5.406;2023-05-12T11:09:41;101939.16;;;22.79;52.44
71735;BME280;59577;52.122;5.406;2023-05-12T11:12:23;101939.56;;;23.19;49.33
71735;BME280;59577;52.122;5.406;2023-05-12T11:14:51;101943.72;;;23.34;50.93
71735;BME280;59577;52.122;5.406;2023-05-12T11:17:18;101940.47;;;23.39;49.24
71735;BME280;59577;52.122;5.406;2023-05-12T11:19:46;101944.34;;;23.15;49.07
71735;BME280;59577;52.122;5.406;2023-05-12T11:22:16;101940.00;;;22.76;49.12
71735;BME280;59577;52.122;5.406;2023-05-12T11:24:43;101942.13;;;22.57;49.47
71735;BME280;59577;52.122;5.406;2023-05-12T11:27:16;101943.06;;;22.40;49.47
71735;BME280;59577;52.122;5.406;2023-05-12T11:29:43;101944.81;;;22.12;50.61
71735;BME280;59577;52.122;5.406;2023-05-12T11:32:14;101946.47;;;21.98;48.82
71735;BME280;59577;52.122;5.406;2023-05-12T11:34:41;101942.59;;;21.89;50.55
71735;BME280;59577;52.122;5.406;2023-05-12T11:37:07;101948.34;;;22.12;50.12
71735;BME280;59577;52.122;5.406;2023-05-12T11:39:34;101944.16;;;21.93;49.28
71735;BME280;59577;52.122;5.406;2023-05-12T11:42:02;101943.78;;;21.91;50.66
71735;BME280;59577;52.122;5.406;2023-05-12T11:44:45;101950.25;;;22.23;49.32
71735;BME280;59577;52.122;5.406;2023-05-12T11:47:13;101952.97;;;22.30;50.23
71735;BME280;59577;52.122;5.406;2023-05-12T11:50:07;101950.91;;;22.45;50.70
71735;BME280;59577;52.122;5.406;2023-05-12T11:52:33;101950.63;;;22.73;48.45
71735;BME280;59577;52.122;5.406;2023-05-12T11:55:00;101949.78;;;23.22;49.01
71735;BME280;59577;52.122;5.406;2023-05-12T11:57:33;101951.94;;;23.03;48.52
71735;BME280;59577;52.122;5.406;2023-05-12T12:00:05;101948.81;;;23.01;50.06
71735;BME280;59577;52.122;5.406;2023-05-12T12:02:33;101941.34;;;22.98;48.79
71735;BME280;59577;52.122;5.406;2023-05-12T12:05:02;101943.94;;;22.75;49.95
71735;BME280;59577;52.122;5.406;2023-05-12T12:07:34;101945.88;;;22.78;49.17
71735;BME280;59577;52.122;5.406;2023-05-12T12:10:15;101954.69;;;22.65;49.64
71735;BME280;59577;52.122;5.406;2023-05-12T12:12:43;101952.34;;;22.60;50.09
71735;BME280;59577;52.122;5.406;2023-05-12T12:15:10;101954.81;;;22.47;48.66
71735;BME280;59577;52.122;5.406;2023-05-12T12:17:37;101952.66;;;22.17;47.95
71735;BME280;59577;52.122;5.406;2023-05-12T12:20:06;101950.31;;;22.15;49.00
71735;BME280;59577;52.122;5.406;2023-05-12T12:22:33;101950.63;;;22.28;48.37
71735;BME280;59577;52.122;5.406;2023-05-12T12:25:01;101947.44;;;22.33;49.75
71735;BME280;59577;52.122;5.406;2023-05-12T12:27:28;101947.06;;;22.31;48.27
71735;BME280;59577;52.122;5.406;2023-05-12T12:29:54;101952.25;;;22.22;48.45
71735;BME280;59577;52.122;5.406;2023-05-12T12:32:21;101957.81;;;22.15;49.29
71735;BME280;59577;52.122;5.406;2023-05-12T12:34:47;101951.88;;;22.13;47.80
71735;BME280;59577;52.122;5.406;2023-05-12T12:37:14;101953.44;;;22.17;47.89
71735;BME280;59577;52.122;5.406;2023-05-12T12:39:41;101950.25;;;22.23;48.65
71735;BME280;59577;52.122;5.406;2023-05-12T12:42:08;101962.75;;;22.42;48.49
71735;BME280;59577;52.122;5.406;2023-05-12T12:44:40;101954.16;;;22.32;47.90
71735;BME280;59577;52.122;5.406;2023-05-12T12:47:13;101955.31;;;22.35;49.19
71735;BME280;59577;52.122;5.406;2023-05-12T12:49:48;101953.34;;;22.32;48.98
71735;BME280;59577;52.122;5.406;2023-05-12T12:52:29;101954.84;;;22.44;49.39
71735;BME280;59577;52.122;5.406;2023-05-12T12:54:56;101957.06;;;22.60;49.83
71735;BME280;59577;52.122;5.406;2023-05-12T12:57:23;101961.03;;;22.59;49.40